sensor_id;sensor_type;location;lat;lon;timestamp;pressure;altitude;pressure_sealevel;temperature;humidity
35507;BME280;36461;52.018;21.036;2023-10-09T00:00:35;101093.39;;;0.62;73.83
35507;BME280;36461;52.018;21.036;2023-10-09T00:03:26;101092.63;;;0.58;74.23
35507;BME280;36461;52.018;21.036;2023-10-09T00:05:56;101088.13;;;0.54;73.93
35507;BME280;36461;52.018;21.036;2023-10-09T00:08:25;101082.75;;;0.50;74.09
35507;BME280;36461;52.018;21.036;2023-10-09T00:11:01;101078.59;;;0.45;74.47
35507;BME280;36461;52.018;21.036;2023-10-09T00:13:46;101076.61;;;0.41;74.38
35507;BME280;36461;52.018;21.036;2023-10-09T00:16:21;101075.89;;;0.38;74.73
35507;BME280;36461;52.018;21.036;2023-10-09T00:19:05;101082.81;;;0.36;74.68
35507;BME280;36461;52.018;21.036;2023-10-09T00:21:47;101078.15;;;0.33;75.10
35507;BME280;36461;52.018;21.036;2023-10-09T00:24:16;101075.90;;;0.31;75.20
35507;BME280;36461;52.018;21.036;2023-10-09T00:26:54;101077.45;;;0.31;75.30
35507;BME280;36461;52.018;21.036;2023-10-09T00:29:42;101082.25;;;0.33;75.34
35507;BME280;36461;52.018;21.036;2023-10-09T00:32:14;101071.27;;;0.37;75.72
35507;BME280;36461;52.018;21.036;2023-10-09T00:34:45;101073.59;;;0.43;75.85
35507;BME280;36461;52.018;21.036;2023-10-09T00:37:19;101067.60;;;0.50;75.95
35507;BME280;36461;52.018;21.036;2023-10-09T00:40:02;101057.30;;;0.55;76.05
35507;BME280;36461;52.018;21.036;2023-10-09T00:42:40;101045.97;;;0.59;75.98
35507;BME280;36461;52.018;21.036;2023-10-09T00:45:09;101039.85;;;0.59;76.20
35507;BME280;36461;52.018;21.036;2023-10-09T00:47:44;101043.30;;;0.61;76.30
35507;BME280;36461;52.018;21.036;2023-10-09T00:50:15;101040.08;;;0.62;76.46
35507;BME280;36461;52.018;21.036;2023-10-09T00:52:46;101039.52;;;0.60;76.09
35507;BME280;36461;52.018;21.036;2023-10-09T00:55:32;101038.60;;;0.56;76.11
35507;BME280;36461;52.018;21.036;2023-10-09T00:58:08;101042.27;;;0.53;76.18
35507;BME280;36461;52.018;21.036;2023-10-09T01:00:43;101043.75;;;0.49;76.59
35507;BME280;36461;52.018;21.036;2023-10-09T01:03:18;101039.43;;;0.46;76.48
35507;BME280;36461;52.018;21.036;2023-10-09T01:06:01;101035.14;;;0.44;76.43
35507;BME280;36461;52.018;21.036;2023-10-09T01:08:39;101026.88;;;0.41;76.52
35507;BME280;36461;52.018;21.036;2023-10-09T01:11:13;101023.42;;;0.37;76.67
35507;BME280;36461;52.018;21.036;2023-10-09T01:13:51;101023.73;;;0.35;76.92
35507;BME280;36461;52.018;21.036;2023-10-09T01:16:21;101018.61;;;0.35;76.96
35507;BME280;36461;52.018;21.036;2023-10-09T01:18:53;101022.36;;;0.36;76.98
35507;BME280;36461;52.018;21.036;2023-10-09T01:21:25;101019.33;;;0.37;76.98
35507;BME280;36461;52.018;21.036;2023-10-09T01:23:55;101014.61;;;0.39;76.91
35507;BME280;36461;52.018;21.036;2023-10-09T01:26:40;101018.38;;;0.41;77.07
35507;BME280;36461;52.018;21.036;2023-10-09T01:29:17;101018.36;;;0.40;77.17
35507;BME280;36461;52.018;21.036;2023-10-09T01:31:48;101010.04;;;0.41;77.27
35507;BME280;36461;52.018;21.036;2023-10-09T01:36:53;100999.17;;;0.42;77.52
35507;BME280;36461;52.018;21.036;2023-10-09T01:39:28;101002.25;;;0.43;77.47
35507;BME280;36461;52.018;21.036;2023-10-09T01:41:58;101004.61;;;0.41;77.65
35507;BME280;36461;52.018;21.036;2023-10-09T01:44:28;101002.36;;;0.41;77.69
35507;BME280;36461;52.018;21.036;2023-10-09T01:47:03;101005.58;;;0.40;78.18
35507;BME280;36461;52.018;21.036;2023-10-09T01:49:51;101004.40;;;0.40;77.96
35507;BME280;36461;52.018;21.036;2023-10-09T01:52:21;101002.68;;;0.39;78.00
35507;BME280;36461;52.018;21.036;2023-10-09T01:54:51;101005.23;;;0.38;78.18
35507;BME280;36461;52.018;21.036;2023-10-09T01:57:20;100997.39;;;0.39;78.47
35507;BME280;36461;52.018;21.036;2023-10-09T01:59:52;100999.48;;;0.41;78.57
35507;BME280;36461;52.018;21.036;2023-10-09T02:02:23;100992.06;;;0.45;78.79
35507;BME280;36461;52.018;21.036;2023-10-09T02:04:57;100989.61;;;0.51;79.07
35507;BME280;36461;52.018;21.036;2023-10-09T02:07:42;100984.64;;;0.58;78.81
35507;BME280;36461;52.018;21.036;2023-10-09T02:10:22;100981.55;;;0.65;78.86
35507;BME280;36461;52.018;21.036;2023-10-09T02:12:57;100983.52;;;0.71;79.06
35507;BME280;36461;52.018;21.036;2023-10-09T02:15:39;100983.11;;;0.77;79.17
35507;BME280;36461;52.018;21.036;2023-10-09T02:18:21;100984.02;;;0.79;78.99
35507;BME280;36461;52.018;21.036;2023-10-09T02:20:51;100993.27;;;0.83;79.24
35507;BME280;36461;52.018;21.036;2023-10-09T02:23:34;100998.29;;;0.88;79.24
35507;BME280;36461;52.018;21.036;2023-10-09T02:26:19;100992.81;;;0.86;79.36
35507;BME280;36461;52.018;21.036;2023-10-09T02:28:57;100988.71;;;0.86;79.43
35507;BME280;36461;52.018;21.036;2023-10-09T02:31:32;100988.23;;;0.87;79.18
35507;BME280;36461;52.018;21.036;2023-10-09T02:34:09;100986.05;;;0.89;79.41
35507;BME280;36461;52.018;21.036;2023-10-09T02:36:44;100985.08;;;0.92;79.49
35507;BME280;36461;52.018;21.036;2023-10-09T02:39:17;100984.45;;;0.95;79.75
35507;BME280;36461;52.018;21.036;2023-10-09T02:41:53;100981.42;;;0.99;79.93
35507;BME280;36461;52.018;21.036;2023-10-09T02:44:35;100971.28;;;1.04;79.73
35507;BME280;36461;52.018;21.036;2023-10-09T02:47:13;100966.05;;;1.07;79.77
35507;BME280;36461;52.018;21.036;2023-10-09T02:50:08;100972.78;;;1.12;79.62
35507;BME280;36461;52.018;21.036;2023-10-09T02:52:48;100974.07;;;1.19;79.76
35507;BME280;36461;52.018;21.036;2023-10-09T02:55:21;100970.58;;;1.24;79.36
35507;BME280;36461;52.018;21.036;2023-10-09T02:57:54;100968.63;;;1.30;79.44
35507;BME280;36461;52.018;21.036;2023-10-09T03:00:48;100966.69;;;1.37;79.53
35507;BME280;36461;52.018;21.036;2023-10-09T03:03:17;100962.14;;;1.41;79.59
35507;BME280;36461;52.018;21.036;2023-10-09T03:05:47;100959.64;;;1.45;79.70
35507;BME280;36461;52.018;21.036;2023-10-09T03:08:17;100953.52;;;1.45;79.62
35507;BME280;36461;52.018;21.036;2023-10-09T03:10:47;100951.65;;;1.46;79.59
35507;BME280;36461;52.018;21.036;2023-10-09T03:13:15;100956.27;;;1.47;79.46
35507;BME280;36461;52.018;21.036;2023-10-09T03:15:48;100958.14;;;1.47;79.61
35507;BME280;36461;52.018;21.036;2023-10-09T03:18:19;100957.26;;;1.45;79.38
35507;BME280;36461;52.018;21.036;2023-10-09T03:20:48;100951.10;;;1.44;79.33
35507;BME280;36461;52.018;21.036;2023-10-09T03:23:16;100947.02;;;1.44;79.53
35507;BME280;36461;52.018;21.036;2023-10-09T03:25:44;100946.86;;;1.46;79.40
35507;BME280;36461;52.018;21.036;2023-10-09T03:28:13;100947.23;;;1.48;79.48
35507;BME280;36461;52.018;21.036;2023-10-09T03:30:43;100952.56;;;1.50;79.72
35507;BME280;36461;52.018;21.036;2023-10-09T03:33:15;100950.05;;;1.55;79.71
35507;BME280;36461;52.018;21.036;2023-10-09T03:35:44;100948.90;;;1.58;79.27
35507;BME280;36461;52.018;21.036;2023-10-09T03:38:12;100955.09;;;1.61;79.59
35507;BME280;36461;52.018;21.036;2023-10-09T03:40:41;100951.54;;;1.63;79.63
35507;BME280;36461;52.018;21.036;2023-10-09T03:43:10;100957.35;;;1.64;79.36
35507;BME280;36461;52.018;21.036;2023-10-09T03:45:40;100957.88;;;1.66;79.22
35507;BME280;36461;52.018;21.036;2023-10-09T03:48:20;100949.73;;;1.69;79.07
35507;BME280;36461;52.018;21.036;2023-10-09T03:50:50;100936.45;;;1.70;79.34
35507;BME280;36461;52.018;21.036;2023-10-09T03:53:30;100937.83;;;1.72;79.21
35507;BME280;36461;52.018;21.036;2023-10-09T03:55:58;100939.58;;;1.75;79.19
35507;BME280;36461;52.018;21.036;2023-10-09T03:58:27;100938.42;;;1.78;79.15
35507;BME280;36461;52.018;21.036;2023-10-09T04:01:07;100936.73;;;1.79;79.36
35507;BME280;36461;52.018;21.036;2023-10-09T04:03:35;100940.00;;;1.81;79.37
35507;BME280;36461;52.018;21.036;2023-10-09T04:06:05;100942.37;;;1.80;79.59
35507;BME280;36461;52.018;21.036;2023-10-09T04:08:37;100946.81;;;1.80;79.47
35507;BME280;36461;52.018;21.036;2023-10-09T04:11:07;100946.31;;;1.82;79.41
35507;BME280;36461;52.018;21.036;2023-10-09T04:13:44;100947.22;;;1.85;79.43
35507;BME280;36461;52.018;21.036;2023-10-09T04:16:17;100943.66;;;1.89;79.71
35507;BME280;36461;52.018;21.036;2023-10-09T04:18:58;100943.21;;;1.92;79.13
35507;BME280;36461;52.018;21.036;2023-10-09T04:21:39;100948.04;;;1.97;79.44
35507;BME280;36461;52.018;21.036;2023-10-09T04:24:10;100948.27;;;2.00;79.69
35507;BME280;36461;52.018;21.036;2023-10-09T04:26:45;100948.63;;;2.02;79.54
35507;BME280;36461;52.018;21.036;2023-10-09T04:29:15;100945.56;;;2.05;79.41
35507;BME280;36461;52.018;21.036;2023-10-09T04:31:56;100940.27;;;2.04;79.28
35507;BME280;36461;52.018;21.036;2023-10-09T04:34:26;100940.96;;;2.05;79.32
35507;BME280;36461;52.018;21.036;2023-10-09T04:37:03;100928.52;;;2.06;79.26
35507;BME280;36461;52.018;21.036;2023-10-09T04:39:37;100922.52;;;2.05;79.45
35507;BME280;36461;52.018;21.036;2023-10-09T04:42:15;100913.14;;;2.05;79.33
35507;BME280;36461;52.018;21.036;2023-10-09T04:45:07;100900.16;;;2.05;79.35
35507;BME280;36461;52.018;21.036;2023-10-09T04:47:35;100901.19;;;2.05;79.49
35507;BME280;36461;52.018;21.036;2023-10-09T04:50:06;100902.71;;;2.04;79.25
35507;BME280;36461;52.018;21.036;2023-10-09T04:53:03;100896.21;;;2.02;79.43
35507;BME280;36461;52.018;21.036;2023-10-09T04:55:46;100890.75;;;2.03;78.90
35507;BME280;36461;52.018;21.036;2023-10-09T04:58:25;100892.16;;;2.06;79.28
35507;BME280;36461;52.018;21.036;2023-10-09T05:00:54;100886.55;;;2.08;78.99
35507;BME280;36461;52.018;21.036;2023-10-09T05:03:25;100874.45;;;2.11;79.24
35507;BME280;36461;52.018;21.036;2023-10-09T05:05:57;100869.36;;;2.14;79.06
35507;BME280;36461;52.018;21.036;2023-10-09T05:08:33;100866.14;;;2.16;79.16
35507;BME280;36461;52.018;21.036;2023-10-09T05:11:03;100874.52;;;2.17;78.87
35507;BME280;36461;52.018;21.036;2023-10-09T05:13:36;100873.50;;;2.19;79.02
35507;BME280;36461;52.018;21.036;2023-10-09T05:16:24;100868.77;;;2.23;79.44
35507;BME280;36461;52.018;21.036;2023-10-09T05:19:01;100857.51;;;2.24;79.20
35507;BME280;36461;52.018;21.036;2023-10-09T05:21:36;100848.96;;;2.25;78.95
35507;BME280;36461;52.018;21.036;2023-10-09T05:24:11;100851.05;;;2.27;79.05
35507;BME280;36461;52.018;21.036;2023-10-09T05:26:45;100842.52;;;2.28;79.23
35507;BME280;36461;52.018;21.036;2023-10-09T05:32:05;100838.60;;;2.31;79.20
35507;BME280;36461;52.018;21.036;2023-10-09T05:34:44;100840.89;;;2.36;79.30
35507;BME280;36461;52.018;21.036;2023-10-09T05:37:30;100843.65;;;2.42;79.11
35507;BME280;36461;52.018;21.036;2023-10-09T05:40:04;100844.07;;;2.50;79.14
35507;BME280;36461;52.018;21.036;2023-10-09T05:42:38;100839.17;;;2.57;78.94
35507;BME280;36461;52.018;21.036;2023-10-09T05:45:14;100831.36;;;2.63;78.86
35507;BME280;36461;52.018;21.036;2023-10-09T05:47:48;100833.29;;;2.70;79.01
35507;BME280;36461;52.018;21.036;2023-10-09T05:50:23;100835.56;;;2.76;78.86
35507;BME280;36461;52.018;21.036;2023-10-09T05:52:53;100832.52;;;2.80;78.69
35507;BME280;36461;52.018;21.036;2023-10-09T05:55:23;100834.42;;;2.85;78.73
35507;BME280;36461;52.018;21.036;2023-10-09T05:58:10;100828.48;;;2.93;78.77
35507;BME280;36461;52.018;21.036;2023-10-09T06:00:52;100821.00;;;2.98;78.85
35507;BME280;36461;52.018;21.036;2023-10-09T06:03:39;100818.62;;;3.01;78.46
35507;BME280;36461;52.018;21.036;2023-10-09T06:06:17;100817.43;;;3.03;78.65
35507;BME280;36461;52.018;21.036;2023-10-09T06:09:05;100815.55;;;3.03;78.63
35507;BME280;36461;52.018;21.036;2023-10-09T06:11:45;100810.43;;;3.05;78.46
35507;BME280;36461;52.018;21.036;2023-10-09T06:14:23;100814.06;;;3.11;78.34
35507;BME280;36461;52.018;21.036;2023-10-09T06:16:58;100820.60;;;3.20;78.54
35507;BME280;36461;52.018;21.036;2023-10-09T06:19:29;100827.31;;;3.30;78.22
35507;BME280;36461;52.018;21.036;2023-10-09T06:21:59;100828.58;;;3.40;78.45
35507;BME280;36461;52.018;21.036;2023-10-09T06:24:41;100818.02;;;3.51;78.38
35507;BME280;36461;52.018;21.036;2023-10-09T06:27:11;100815.81;;;3.61;77.98
35507;BME280;36461;52.018;21.036;2023-10-09T06:29:40;100818.06;;;3.70;77.86
35507;BME280;36461;52.018;21.036;2023-10-09T06:32:12;100818.27;;;3.78;77.82
35507;BME280;36461;52.018;21.036;2023-10-09T06:34:47;100826.17;;;3.88;78.03
35507;BME280;36461;52.018;21.036;2023-10-09T06:37:25;100823.79;;;3.97;77.96
35507;BME280;36461;52.018;21.036;2023-10-09T06:39:54;100825.85;;;4.02;77.86
35507;BME280;36461;52.018;21.036;2023-10-09T06:42:26;100820.39;;;4.07;77.63
35507;BME280;36461;52.018;21.036;2023-10-09T06:45:02;100817.30;;;4.11;77.53
35507;BME280;36461;52.018;21.036;2023-10-09T06:47:37;100814.23;;;4.19;77.67
35507;BME280;36461;52.018;21.036;2023-10-09T06:50:24;100810.80;;;4.24;77.49
35507;BME280;36461;52.018;21.036;2023-10-09T06:52:54;100812.53;;;4.25;77.44
35507;BME280;36461;52.018;21.036;2023-10-09T06:55:28;100810.30;;;4.29;77.35
35507;BME280;36461;52.018;21.036;2023-10-09T06:58:16;100809.27;;;4.32;77.51
35507;BME280;36461;52.018;21.036;2023-10-09T07:00:55;100806.70;;;4.38;77.38
35507;BME280;36461;52.018;21.036;2023-10-09T07:03:27;100805.49;;;4.51;77.28
35507;BME280;36461;52.018;21.036;2023-10-09T07:06:05;100810.11;;;4.63;77.02
35507;BME280;36461;52.018;21.036;2023-10-09T07:08:38;100812.67;;;4.75;76.77
35507;BME280;36461;52.018;21.036;2023-10-09T07:11:06;100813.69;;;4.87;77.02
35507;BME280;36461;52.018;21.036;2023-10-09T07:14:22;100810.40;;;5.03;76.53
35507;BME280;36461;52.018;21.036;2023-10-09T07:17:02;100814.83;;;5.13;76.45
35507;BME280;36461;52.018;21.036;2023-10-09T07:19:51;100814.77;;;5.27;76.27
35507;BME280;36461;52.018;21.036;2023-10-09T07:22:22;100816.45;;;5.37;76.09
35507;BME280;36461;52.018;21.036;2023-10-09T07:24:52;100815.39;;;5.46;76.07
35507;BME280;36461;52.018;21.036;2023-10-09T07:27:42;100823.92;;;5.58;75.81
35507;BME280;36461;52.018;21.036;2023-10-09T07:30:30;100822.16;;;5.67;75.53
35507;BME280;36461;52.018;21.036;2023-10-09T07:33:06;100823.83;;;5.79;75.36
35507;BME280;36461;52.018;21.036;2023-10-09T07:35:40;100824.95;;;5.92;75.06
35507;BME280;36461;52.018;21.036;2023-10-09T07:38:17;100820.28;;;6.03;74.89
35507;BME280;36461;52.018;21.036;2023-10-09T07:40:51;100821.36;;;6.19;74.58
35507;BME280;36461;52.018;21.036;2023-10-09T07:43:54;100816.08;;;6.38;74.27
35507;BME280;36461;52.018;21.036;2023-10-09T07:46:24;100813.02;;;6.54;73.93
35507;BME280;36461;52.018;21.036;2023-10-09T07:49:05;100810.94;;;6.75;73.93
35507;BME280;36461;52.018;21.036;2023-10-09T07:51:37;100806.28;;;6.94;73.53
35507;BME280;36461;52.018;21.036;2023-10-09T07:54:06;100807.11;;;7.13;73.37
35507;BME280;36461;52.018;21.036;2023-10-09T07:56:36;100803.92;;;7.22;72.90
35507;BME280;36461;52.018;21.036;2023-10-09T07:59:10;100806.70;;;7.34;72.75
35507;BME280;36461;52.018;21.036;2023-10-09T08:01:43;100809.02;;;7.42;72.22
35507;BME280;36461;52.018;21.036;2023-10-09T08:04:22;100816.59;;;7.42;71.65
35507;BME280;36461;52.018;21.036;2023-10-09T08:07:09;100809.61;;;7.49;71.71
35507;BME280;36461;52.018;21.036;2023-10-09T08:09:57;100803.71;;;7.52;71.32
35507;BME280;36461;52.018;21.036;2023-10-09T08:12:45;100802.83;;;7.54;71.57
35507;BME280;36461;52.018;21.036;2023-10-09T08:15:26;100802.67;;;7.66;71.51
35507;BME280;36461;52.018;21.036;2023-10-09T08:18:19;100805.42;;;7.79;71.10
35507;BME280;36461;52.018;21.036;2023-10-09T08:20:56;100793.80;;;7.97;71.14
35507;BME280;36461;52.018;21.036;2023-10-09T08:23:30;100794.92;;;8.25;71.18
35507;BME280;36461;52.018;21.036;2023-10-09T08:26:04;100795.27;;;8.46;70.56
35507;BME280;36461;52.018;21.036;2023-10-09T08:28:43;100789.92;;;8.58;70.03
35507;BME280;36461;52.018;21.036;2023-10-09T08:31:13;100785.64;;;8.75;70.17
35507;BME280;36461;52.018;21.036;2023-10-09T08:33:47;100793.69;;;8.98;70.10
35507;BME280;36461;52.018;21.036;2023-10-09T08:36:40;100788.64;;;9.17;69.72
35507;BME280;36461;52.018;21.036;2023-10-09T08:39:11;100785.42;;;9.32;69.11
35507;BME280;36461;52.018;21.036;2023-10-09T08:41:45;100781.89;;;9.44;68.38
35507;BME280;36461;52.018;21.036;2023-10-09T08:44:14;100769.08;;;9.53;68.73
35507;BME280;36461;52.018;21.036;2023-10-09T08:46:43;100761.73;;;9.65;68.64
35507;BME280;36461;52.018;21.036;2023-10-09T08:49:13;100762.33;;;9.70;67.35
35507;BME280;36461;52.018;21.036;2023-10-09T08:51:42;100765.02;;;9.73;67.05
35507;BME280;36461;52.018;21.036;2023-10-09T08:54:11;100762.81;;;9.79;66.90
35507;BME280;36461;52.018;21.036;2023-10-09T08:56:41;100763.91;;;9.84;66.11
35507;BME280;36461;52.018;21.036;2023-10-09T08:59:20;100756.33;;;9.90;66.02
35507;BME280;36461;52.018;21.036;2023-10-09T09:01:49;100755.13;;;9.97;65.53
35507;BME280;36461;52.018;21.036;2023-10-09T09:04:40;100757.35;;;10.06;64.93
35507;BME280;36461;52.018;21.036;2023-10-09T09:07:26;100749.77;;;10.11;64.38
35507;BME280;36461;52.018;21.036;2023-10-09T09:09:58;100744.69;;;10.28;64.64
35507;BME280;36461;52.018;21.036;2023-10-09T09:12:32;100739.58;;;10.40;64.30
35507;BME280;36461;52.018;21.036;2023-10-09T09:15:13;100738.50;;;10.48;63.53
35507;BME280;36461;52.018;21.036;2023-10-09T09:17:50;100736.93;;;10.55;63.01
35507;BME280;36461;52.018;21.036;2023-10-09T09:20:20;100738.06;;;10.64;62.91
35507;BME280;36461;52.018;21.036;2023-10-09T09:22:55;100741.24;;;10.69;62.30
35507;BME280;36461;52.018;21.036;2023-10-09T09:25:45;100735.40;;;10.73;62.68
35507;BME280;36461;52.018;21.036;2023-10-09T09:28:15;100725.23;;;10.84;62.32
35507;BME280;36461;52.018;21.036;2023-10-09T09:30:49;100720.02;;;10.91;61.79
35507;BME280;36461;52.018;21.036;2023-10-09T09:33:27;100722.64;;;11.03;61.55
35507;BME280;36461;52.018;21.036;2023-10-09T09:36:08;100717.19;;;11.18;61.12
35507;BME280;36461;52.018;21.036;2023-10-09T09:38:39;100711.95;;;11.32;61.44
35507;BME280;36461;52.018;21.036;2023-10-09T09:41:11;100707.98;;;11.42;61.09
35507;BME280;36461;52.018;21.036;2023-10-09T09:43:41;100706.58;;;11.49;59.72
35507;BME280;36461;52.018;21.036;2023-10-09T09:46:13;100704.86;;;11.53;58.93
35507;BME280;36461;52.018;21.036;2023-10-09T09:48:43;100701.98;;;11.52;58.25
35507;BME280;36461;52.018;21.036;2023-10-09T09:51:13;100698.64;;;11.52;58.14
35507;BME280;36461;52.018;21.036;2023-10-09T09:53:43;100692.89;;;11.59;58.39
35507;BME280;36461;52.018;21.036;2023-10-09T09:56:19;100690.10;;;11.65;58.33
35507;BME280;36461;52.018;21.036;2023-10-09T09:58:50;100692.03;;;11.70;57.97
35507;BME280;36461;52.018;21.036;2023-10-09T10:01:30;100686.92;;;11.78;57.94
35507;BME280;36461;52.018;21.036;2023-10-09T10:04:07;100679.17;;;11.87;57.83
35507;BME280;36461;52.018;21.036;2023-10-09T10:06:41;100673.04;;;11.89;57.46
35507;BME280;36461;52.018;21.036;2023-10-09T10:09:38;100669.88;;;11.90;57.19
35507;BME280;36461;52.018;21.036;2023-10-09T10:12:08;100665.98;;;11.88;56.54
35507;BME280;36461;52.018;21.036;2023-10-09T10:14:52;100660.52;;;11.90;56.59
35507;BME280;36461;52.018;21.036;2023-10-09T10:17:25;100658.89;;;11.92;56.78
35507;BME280;36461;52.018;21.036;2023-10-09T10:20:04;100659.11;;;12.02;57.00
35507;BME280;36461;52.018;21.036;2023-10-09T10:22:45;100661.73;;;12.12;56.74
35507;BME280;36461;52.018;21.036;2023-10-09T10:28:21;100657.40;;;12.12;56.64
35507;BME280;36461;52.018;21.036;2023-10-09T10:31:09;100653.68;;;11.98;56.35
35507;BME280;36461;52.018;21.036;2023-10-09T10:36:24;100646.41;;;11.86;55.99
35507;BME280;36461;52.018;21.036;2023-10-09T10:39:05;100645.36;;;11.71;55.74
35507;BME280;36461;52.018;21.036;2023-10-09T10:41:58;100642.73;;;11.66;55.93
35507;BME280;36461;52.018;21.036;2023-10-09T10:44:33;100641.46;;;11.63;55.43
35507;BME280;36461;52.018;21.036;2023-10-09T10:47:04;100634.31;;;11.65;55.54
35507;BME280;36461;52.018;21.036;2023-10-09T10:49:34;100627.02;;;11.70;55.58
35507;BME280;36461;52.018;21.036;2023-10-09T10:52:05;100626.34;;;11.75;55.29
35507;BME280;36461;52.018;21.036;2023-10-09T10:54:46;100622.23;;;11.73;55.38
35507;BME280;36461;52.018;21.036;2023-10-09T10:57:21;100622.13;;;11.77;55.31
35507;BME280;36461;52.018;21.036;2023-10-09T11:00:12;100619.05;;;11.75;55.17
35507;BME280;36461;52.018;21.036;2023-10-09T11:03:01;100613.23;;;11.73;54.92
35507;BME280;36461;52.018;21.036;2023-10-09T11:05:42;100611.02;;;11.66;55.03
35507;BME280;36461;52.018;21.036;2023-10-09T11:08:24;100611.33;;;11.67;55.30
35507;BME280;36461;52.018;21.036;2023-10-09T11:11:12;100606.77;;;11.69;55.05
35507;BME280;36461;52.018;21.036;2023-10-09T11:13:44;100603.84;;;11.63;55.39
35507;BME280;36461;52.018;21.036;2023-10-09T11:16:26;100605.68;;;11.65;55.54
35507;BME280;36461;52.018;21.036;2023-10-09T11:19:20;100605.33;;;11.65;55.52
35507;BME280;36461;52.018;21.036;2023-10-09T11:21:55;100607.15;;;11.62;55.49
35507;BME280;36461;52.018;21.036;2023-10-09T11:24:30;100607.89;;;11.56;55.62
35507;BME280;36461;52.018;21.036;2023-10-09T11:27:04;100603.59;;;11.50;55.90
35507;BME280;36461;52.018;21.036;2023-10-09T11:29:35;100601.89;;;11.49;56.08
35507;BME280;36461;52.018;21.036;2023-10-09T11:32:28;100597.39;;;11.49;55.95
35507;BME280;36461;52.018;21.036;2023-10-09T11:37:40;100602.66;;;11.41;56.18
35507;BME280;36461;52.018;21.036;2023-10-09T11:40:31;100603.73;;;11.34;56.06
35507;BME280;36461;52.018;21.036;2023-10-09T11:43:19;100600.39;;;11.31;56.43
35507;BME280;36461;52.018;21.036;2023-10-09T11:46:11;100602.55;;;11.34;56.67
35507;BME280;36461;52.018;21.036;2023-10-09T11:48:42;100591.02;;;11.31;56.15
35507;BME280;36461;52.018;21.036;2023-10-09T11:51:36;100587.58;;;11.31;56.52
35507;BME280;36461;52.018;21.036;2023-10-09T11:54:29;100591.25;;;11.29;56.71
35507;BME280;36461;52.018;21.036;2023-10-09T11:56:59;100585.38;;;11.33;56.92
35507;BME280;36461;52.018;21.036;2023-10-09T11:59:31;100586.63;;;11.38;57.01
35507;BME280;36461;52.018;21.036;2023-10-09T12:02:09;100585.80;;;11.32;56.72
35507;BME280;36461;52.018;21.036;2023-10-09T12:04:41;100579.67;;;11.33;56.82
35507;BME280;36461;52.018;21.036;2023-10-09T12:07:13;100580.21;;;11.33;56.64
35507;BME280;36461;52.018;21.036;2023-10-09T12:09:42;100579.59;;;11.41;57.14
35507;BME280;36461;52.018;21.036;2023-10-09T12:12:10;100582.70;;;11.52;57.57
35507;BME280;36461;52.018;21.036;2023-10-09T12:14:38;100575.23;;;11.57;57.58
35507;BME280;36461;52.018;21.036;2023-10-09T12:17:08;100575.30;;;11.61;57.21
35507;BME280;36461;52.018;21.036;2023-10-09T12:19:38;100574.67;;;11.65;56.78
35507;BME280;36461;52.018;21.036;2023-10-09T12:22:08;100573.27;;;11.70;56.83
35507;BME280;36461;52.018;21.036;2023-10-09T12:24:44;100575.95;;;11.68;56.51
35507;BME280;36461;52.018;21.036;2023-10-09T12:27:13;100578.98;;;11.71;56.75
35507;BME280;36461;52.018;21.036;2023-10-09T12:29:42;100576.11;;;11.73;56.23
35507;BME280;36461;52.018;21.036;2023-10-09T12:32:17;100569.45;;;11.70;56.51
35507;BME280;36461;52.018;21.036;2023-10-09T12:34:48;100564.90;;;11.66;56.00
35507;BME280;36461;52.018;21.036;2023-10-09T12:37:19;100557.65;;;11.61;56.36
35507;BME280;36461;52.018;21.036;2023-10-09T12:39:49;100557.27;;;11.72;56.53
35507;BME280;36461;52.018;21.036;2023-10-09T12:42:18;100562.80;;;11.88;56.80
35507;BME280;36461;52.018;21.036;2023-10-09T12:44:46;100568.76;;;12.01;56.82
35507;BME280;36461;52.018;21.036;2023-10-09T12:47:14;100570.16;;;11.90;55.88
35507;BME280;36461;52.018;21.036;2023-10-09T12:49:45;100577.21;;;11.77;56.37
35507;BME280;36461;52.018;21.036;2023-10-09T12:52:14;100567.67;;;11.61;56.33
35507;BME280;36461;52.018;21.036;2023-10-09T12:54:45;100563.73;;;11.49;56.53
35507;BME280;36461;52.018;21.036;2023-10-09T12:57:16;100570.40;;;11.41;56.87
35507;BME280;36461;52.018;21.036;2023-10-09T12:59:44;100569.33;;;11.37;57.20
35507;BME280;36461;52.018;21.036;2023-10-09T13:02:17;100565.19;;;11.37;57.40
35507;BME280;36461;52.018;21.036;2023-10-09T13:04:58;100565.36;;;11.32;57.56
35507;BME280;36461;52.018;21.036;2023-10-09T13:07:28;100569.45;;;11.22;57.35
35507;BME280;36461;52.018;21.036;2023-10-09T13:09:56;100564.42;;;11.18;57.58
35507;BME280;36461;52.018;21.036;2023-10-09T13:12:37;100561.63;;;11.07;57.45
35507;BME280;36461;52.018;21.036;2023-10-09T13:15:10;100552.40;;;11.03;57.88
35507;BME280;36461;52.018;21.036;2023-10-09T13:17:39;100552.33;;;11.00;58.19
35507;BME280;36461;52.018;21.036;2023-10-09T13:20:08;100556.85;;;10.94;58.49
35507;BME280;36461;52.018;21.036;2023-10-09T13:22:44;100545.71;;;10.89;58.39
35507;BME280;36461;52.018;21.036;2023-10-09T13:25:16;100539.08;;;10.86;58.68
35507;BME280;36461;52.018;21.036;2023-10-09T13:28:02;100541.88;;;10.73;58.60
35507;BME280;36461;52.018;21.036;2023-10-09T13:30:32;100538.23;;;10.68;59.14
35507;BME280;36461;52.018;21.036;2023-10-09T13:33:08;100532.66;;;10.64;59.28
35507;BME280;36461;52.018;21.036;2023-10-09T13:35:42;100528.48;;;10.64;59.40
35507;BME280;36461;52.018;21.036;2023-10-09T13:38:18;100527.38;;;10.66;59.47
35507;BME280;36461;52.018;21.036;2023-10-09T13:40:47;100532.30;;;10.58;59.29
35507;BME280;36461;52.018;21.036;2023-10-09T13:43:17;100527.56;;;10.49;59.51
35507;BME280;36461;52.018;21.036;2023-10-09T13:45:46;100521.55;;;10.47;59.91